sensor_id;sensor_type;location;lat;lon;timestamp;P1;durP1;ratioP1;P2;durP2;ratioP2
21266;SDS011;10791;53.108;18.326;2023-10-31T00:02:40;18.50;;;8.90;;
21266;SDS011;10791;53.108;18.326;2023-10-31T00:07:43;15.03;;;9.40;;
21266;SDS011;10791;53.108;18.326;2023-10-31T00:12:47;18.27;;;9.80;;
21266;SDS011;10791;53.108;18.326;2023-10-31T00:17:51;18.77;;;9.63;;
21266;SDS011;10791;53.108;18.326;2023-10-31T00:22:54;17.17;;;10.33;;
21266;SDS011;10791;53.108;18.326;2023-10-31T00:27:57;16.83;;;10.50;;
21266;SDS011;10791;53.108;18.326;2023-10-31T00:33:00;18.33;;;8.60;;
21266;SDS011;10791;53.108;18.326;2023-10-31T00:38:04;18.23;;;8.87;;
21266;SDS011;10791;53.108;18.326;2023-10-31T00:43:07;19.20;;;9.63;;
21266;SDS011;10791;53.108;18.326;2023-10-31T00:48:10;16.97;;;9.60;;
21266;SDS011;10791;53.108;18.326;2023-10-31T00:53:13;20.27;;;10.37;;
21266;SDS011;10791;53.108;18.326;2023-10-31T00:58:17;20.70;;;9.93;;
21266;SDS011;10791;53.108;18.326;2023-10-31T01:03:21;19.07;;;9.80;;
21266;SDS011;10791;53.108;18.326;2023-10-31T01:08:24;19.27;;;9.93;;
21266;SDS011;10791;53.108;18.326;2023-10-31T01:13:27;15.67;;;9.37;;
21266;SDS011;10791;53.108;18.326;2023-10-31T01:18:30;14.87;;;9.57;;
21266;SDS011;10791;53.108;18.326;2023-10-31T01:23:34;17.93;;;10.83;;
21266;SDS011;10791;53.108;18.326;2023-10-31T01:28:37;18.80;;;10.43;;
21266;SDS011;10791;53.108;18.326;2023-10-31T01:33:40;16.67;;;9.43;;
21266;SDS011;10791;53.108;18.326;2023-10-31T01:38:43;20.00;;;9.93;;
21266;SDS011;10791;53.108;18.326;2023-10-31T01:43:49;19.47;;;10.30;;
21266;SDS011;10791;53.108;18.326;2023-10-31T01:48:52;19.40;;;9.60;;
21266;SDS011;10791;53.108;18.326;2023-10-31T01:53:56;17.00;;;9.73;;
21266;SDS011;10791;53.108;18.326;2023-10-31T01:58:59;13.57;;;9.10;;
21266;SDS011;10791;53.108;18.326;2023-10-31T02:04:03;16.20;;;8.07;;
21266;SDS011;10791;53.108;18.326;2023-10-31T02:09:06;18.97;;;10.10;;
21266;SDS011;10791;53.108;18.326;2023-10-31T02:14:09;12.97;;;7.53;;
21266;SDS011;10791;53.108;18.326;2023-10-31T02:19:13;13.07;;;7.03;;
21266;SDS011;10791;53.108;18.326;2023-10-31T02:24:21;12.93;;;7.73;;
21266;SDS011;10791;53.108;18.326;2023-10-31T02:29:24;15.17;;;7.30;;
21266;SDS011;10791;53.108;18.326;2023-10-31T02:34:27;12.37;;;7.13;;
21266;SDS011;10791;53.108;18.326;2023-10-31T02:39:30;13.80;;;7.77;;
21266;SDS011;10791;53.108;18.326;2023-10-31T02:44:33;13.57;;;8.20;;
21266;SDS011;10791;53.108;18.326;2023-10-31T02:49:36;14.77;;;7.20;;
21266;SDS011;10791;53.108;18.326;2023-10-31T02:54:40;13.00;;;7.23;;
21266;SDS011;10791;53.108;18.326;2023-10-31T02:59:43;13.57;;;7.07;;
21266;SDS011;10791;53.108;18.326;2023-10-31T03:04:46;14.73;;;7.50;;
21266;SDS011;10791;53.108;18.326;2023-10-31T03:09:49;19.53;;;8.13;;
21266;SDS011;10791;53.108;18.326;2023-10-31T03:14:52;13.40;;;6.47;;
21266;SDS011;10791;53.108;18.326;2023-10-31T03:19:55;11.43;;;6.70;;
21266;SDS011;10791;53.108;18.326;2023-10-31T03:24:58;12.83;;;6.97;;
21266;SDS011;10791;53.108;18.326;2023-10-31T03:30:01;12.50;;;7.00;;
21266;SDS011;10791;53.108;18.326;2023-10-31T03:35:05;9.97;;;6.73;;
21266;SDS011;10791;53.108;18.326;2023-10-31T03:40:09;14.80;;;6.67;;
21266;SDS011;10791;53.108;18.326;2023-10-31T03:45:12;14.07;;;6.63;;
21266;SDS011;10791;53.108;18.326;2023-10-31T03:50:15;12.33;;;6.50;;
21266;SDS011;10791;53.108;18.326;2023-10-31T03:55:18;9.03;;;6.03;;
21266;SDS011;10791;53.108;18.326;2023-10-31T04:00:22;12.77;;;6.47;;
21266;SDS011;10791;53.108;18.326;2023-10-31T04:05:25;15.97;;;7.53;;
21266;SDS011;10791;53.108;18.326;2023-10-31T04:10:28;10.93;;;6.00;;
21266;SDS011;10791;53.108;18.326;2023-10-31T04:15:31;10.23;;;6.50;;
21266;SDS011;10791;53.108;18.326;2023-10-31T04:20:36;14.53;;;6.43;;
21266;SDS011;10791;53.108;18.326;2023-10-31T04:25:39;10.53;;;5.87;;
21266;SDS011;10791;53.108;18.326;2023-10-31T04:30:42;11.70;;;5.77;;
21266;SDS011;10791;53.108;18.326;2023-10-31T04:35:45;10.80;;;6.03;;
21266;SDS011;10791;53.108;18.326;2023-10-31T04:40:48;15.03;;;6.40;;
21266;SDS011;10791;53.108;18.326;2023-10-31T04:45:51;12.33;;;5.53;;
21266;SDS011;10791;53.108;18.326;2023-10-31T04:50:54;11.73;;;5.40;;
21266;SDS011;10791;53.108;18.326;2023-10-31T04:55:59;9.13;;;5.83;;
21266;SDS011;10791;53.108;18.326;2023-10-31T05:01:02;8.53;;;4.73;;
21266;SDS011;10791;53.108;18.326;2023-10-31T05:06:10;10.30;;;5.23;;
21266;SDS011;10791;53.108;18.326;2023-10-31T05:11:13;8.67;;;5.17;;
21266;SDS011;10791;53.108;18.326;2023-10-31T05:16:16;10.93;;;4.80;;
21266;SDS011;10791;53.108;18.326;2023-10-31T05:21:19;10.93;;;4.70;;
21266;SDS011;10791;53.108;18.326;2023-10-31T05:26:23;9.67;;;5.90;;
21266;SDS011;10791;53.108;18.326;2023-10-31T05:31:26;9.67;;;5.00;;
21266;SDS011;10791;53.108;18.326;2023-10-31T05:36:29;8.67;;;5.40;;
21266;SDS011;10791;53.108;18.326;2023-10-31T05:41:36;9.87;;;5.23;;
21266;SDS011;10791;53.108;18.326;2023-10-31T05:46:39;10.03;;;4.87;;
21266;SDS011;10791;53.108;18.326;2023-10-31T05:51:44;8.67;;;4.87;;
21266;SDS011;10791;53.108;18.326;2023-10-31T05:56:47;8.13;;;4.33;;
21266;SDS011;10791;53.108;18.326;2023-10-31T06:01:50;8.00;;;4.77;;
21266;SDS011;10791;53.108;18.326;2023-10-31T06:06:55;9.60;;;5.07;;
21266;SDS011;10791;53.108;18.326;2023-10-31T06:11:58;9.20;;;4.23;;
21266;SDS011;10791;53.108;18.326;2023-10-31T06:17:02;8.03;;;4.60;;
21266;SDS011;10791;53.108;18.326;2023-10-31T06:22:05;7.80;;;4.30;;
21266;SDS011;10791;53.108;18.326;2023-10-31T06:27:08;7.37;;;3.73;;
21266;SDS011;10791;53.108;18.326;2023-10-31T06:32:11;10.80;;;4.63;;
21266;SDS011;10791;53.108;18.326;2023-10-31T06:37:16;8.50;;;4.70;;
21266;SDS011;10791;53.108;18.326;2023-10-31T06:42:19;8.97;;;5.57;;
21266;SDS011;10791;53.108;18.326;2023-10-31T06:47:23;14.07;;;5.83;;
21266;SDS011;10791;53.108;18.326;2023-10-31T06:52:26;7.40;;;3.63;;
21266;SDS011;10791;53.108;18.326;2023-10-31T06:57:30;10.97;;;4.90;;
21266;SDS011;10791;53.108;18.326;2023-10-31T07:02:33;8.70;;;4.50;;
21266;SDS011;10791;53.108;18.326;2023-10-31T07:07:37;8.27;;;4.87;;
21266;SDS011;10791;53.108;18.326;2023-10-31T07:12:41;6.70;;;4.50;;
21266;SDS011;10791;53.108;18.326;2023-10-31T07:17:44;7.43;;;4.27;;
21266;SDS011;10791;53.108;18.326;2023-10-31T07:22:48;6.50;;;4.17;;
21266;SDS011;10791;53.108;18.326;2023-10-31T07:27:51;8.27;;;4.47;;
21266;SDS011;10791;53.108;18.326;2023-10-31T07:32:54;10.00;;;4.47;;
21266;SDS011;10791;53.108;18.326;2023-10-31T07:37:58;8.13;;;4.43;;
21266;SDS011;10791;53.108;18.326;2023-10-31T07:43:01;9.20;;;4.47;;
21266;SDS011;10791;53.108;18.326;2023-10-31T07:48:05;6.53;;;3.80;;
21266;SDS011;10791;53.108;18.326;2023-10-31T07:53:08;8.27;;;4.87;;
21266;SDS011;10791;53.108;18.326;2023-10-31T07:58:12;8.90;;;5.10;;
21266;SDS011;10791;53.108;18.326;2023-10-31T08:03:15;8.23;;;3.87;;
21266;SDS011;10791;53.108;18.326;2023-10-31T08:08:19;7.77;;;3.07;;
21266;SDS011;10791;53.108;18.326;2023-10-31T08:13:22;7.57;;;4.67;;
21266;SDS011;10791;53.108;18.326;2023-10-31T08:18:26;7.60;;;4.00;;
21266;SDS011;10791;53.108;18.326;2023-10-31T08:23:29;8.13;;;4.23;;
21266;SDS011;10791;53.108;18.326;2023-10-31T08:28:32;11.80;;;4.87;;
21266;SDS011;10791;53.108;18.326;2023-10-31T08:33:36;10.63;;;3.97;;
21266;SDS011;10791;53.108;18.326;2023-10-31T08:38:40;7.43;;;4.87;;
21266;SDS011;10791;53.108;18.326;2023-10-31T08:43:43;9.60;;;4.93;;
21266;SDS011;10791;53.108;18.326;2023-10-31T08:48:47;9.23;;;5.13;;
21266;SDS011;10791;53.108;18.326;2023-10-31T08:53:50;12.53;;;5.27;;
21266;SDS011;10791;53.108;18.326;2023-10-31T08:58:54;11.20;;;5.97;;
21266;SDS011;10791;53.108;18.326;2023-10-31T09:04:44;8.97;;;6.03;;
21266;SDS011;10791;53.108;18.326;2023-10-31T09:10:29;10.30;;;5.67;;
21266;SDS011;10791;53.108;18.326;2023-10-31T09:15:32;9.67;;;5.33;;
21266;SDS011;10791;53.108;18.326;2023-10-31T09:20:35;8.60;;;4.53;;
21266;SDS011;10791;53.108;18.326;2023-10-31T09:25:39;5.33;;;4.13;;
21266;SDS011;10791;53.108;18.326;2023-10-31T09:30:42;7.33;;;4.23;;
21266;SDS011;10791;53.108;18.326;2023-10-31T09:35:47;9.57;;;4.27;;
21266;SDS011;10791;53.108;18.326;2023-10-31T09:40:51;6.93;;;3.80;;
21266;SDS011;10791;53.108;18.326;2023-10-31T09:45:55;6.77;;;4.10;;
21266;SDS011;10791;53.108;18.326;2023-10-31T09:51:00;6.37;;;4.30;;
21266;SDS011;10791;53.108;18.326;2023-10-31T09:56:05;7.73;;;4.40;;
21266;SDS011;10791;53.108;18.326;2023-10-31T10:01:10;5.83;;;4.17;;
21266;SDS011;10791;53.108;18.326;2023-10-31T10:06:13;10.43;;;3.73;;
21266;SDS011;10791;53.108;18.326;2023-10-31T10:11:17;9.90;;;4.13;;
21266;SDS011;10791;53.108;18.326;2023-10-31T10:16:28;5.97;;;3.50;;
21266;SDS011;10791;53.108;18.326;2023-10-31T10:26:59;6.53;;;4.53;;
21266;SDS011;10791;53.108;18.326;2023-10-31T10:32:04;5.97;;;4.13;;
21266;SDS011;10791;53.108;18.326;2023-10-31T10:37:10;5.40;;;3.70;;
21266;SDS011;10791;53.108;18.326;2023-10-31T10:42:27;6.10;;;4.23;;
21266;SDS011;10791;53.108;18.326;2023-10-31T10:47:50;6.43;;;4.93;;
21266;SDS011;10791;53.108;18.326;2023-10-31T10:53:00;6.73;;;5.03;;
21266;SDS011;10791;53.108;18.326;2023-10-31T10:58:24;8.80;;;5.83;;
21266;SDS011;10791;53.108;18.326;2023-10-31T11:03:30;8.13;;;5.07;;
21266;SDS011;10791;53.108;18.326;2023-10-31T11:08:35;11.07;;;5.97;;
21266;SDS011;10791;53.108;18.326;2023-10-31T11:13:40;7.97;;;5.50;;
21266;SDS011;10791;53.108;18.326;2023-10-31T11:18:45;8.80;;;5.97;;
21266;SDS011;10791;53.108;18.326;2023-10-31T11:23:58;9.30;;;6.30;;
21266;SDS011;10791;53.108;18.326;2023-10-31T11:29:06;9.50;;;6.37;;
21266;SDS011;10791;53.108;18.326;2023-10-31T11:34:09;9.53;;;6.70;;
21266;SDS011;10791;53.108;18.326;2023-10-31T11:39:17;10.17;;;7.07;;
21266;SDS011;10791;53.108;18.326;2023-10-31T11:44:27;8.73;;;5.90;;
21266;SDS011;10791;53.108;18.326;2023-10-31T11:49:46;9.80;;;5.73;;
21266;SDS011;10791;53.108;18.326;2023-10-31T11:54:53;7.13;;;4.10;;
21266;SDS011;10791;53.108;18.326;2023-10-31T11:59:56;6.33;;;4.20;;
21266;SDS011;10791;53.108;18.326;2023-10-31T12:05:12;5.30;;;3.40;;
21266;SDS011;10791;53.108;18.326;2023-10-31T12:10:21;4.50;;;2.80;;
21266;SDS011;10791;53.108;18.326;2023-10-31T12:15:27;3.80;;;2.60;;
21266;SDS011;10791;53.108;18.326;2023-10-31T12:20:30;5.17;;;2.03;;
21266;SDS011;10791;53.108;18.326;2023-10-31T12:25:45;4.43;;;1.90;;
21266;SDS011;10791;53.108;18.326;2023-10-31T12:30:52;2.77;;;1.50;;
21266;SDS011;10791;53.108;18.326;2023-10-31T12:36:00;2.17;;;1.37;;
21266;SDS011;10791;53.108;18.326;2023-10-31T12:41:04;3.40;;;1.77;;
21266;SDS011;10791;53.108;18.326;2023-10-31T12:46:27;2.57;;;1.30;;
21266;SDS011;10791;53.108;18.326;2023-10-31T12:51:31;2.60;;;1.80;;
21266;SDS011;10791;53.108;18.326;2023-10-31T12:56:38;2.30;;;1.63;;
21266;SDS011;10791;53.108;18.326;2023-10-31T13:01:43;3.17;;;1.60;;
21266;SDS011;10791;53.108;18.326;2023-10-31T13:07:00;2.20;;;1.40;;
21266;SDS011;10791;53.108;18.326;2023-10-31T13:12:06;4.47;;;1.87;;
21266;SDS011;10791;53.108;18.326;2023-10-31T13:17:10;3.53;;;1.97;;
21266;SDS011;10791;53.108;18.326;2023-10-31T13:22:14;2.60;;;1.53;;
21266;SDS011;10791;53.108;18.326;2023-10-31T13:27:17;2.67;;;1.50;;
21266;SDS011;10791;53.108;18.326;2023-10-31T13:32:21;1.97;;;1.33;;
21266;SDS011;10791;53.108;18.326;2023-10-31T13:37:25;2.93;;;1.70;;
21266;SDS011;10791;53.108;18.326;2023-10-31T13:42:28;1.97;;;1.23;;
21266;SDS011;10791;53.108;18.326;2023-10-31T13:47:31;2.23;;;1.53;;
21266;SDS011;10791;53.108;18.326;2023-10-31T13:52:35;4.37;;;1.30;;
21266;SDS011;10791;53.108;18.326;2023-10-31T13:57:40;1.77;;;1.17;;
21266;SDS011;10791;53.108;18.326;2023-10-31T14:02:44;1.87;;;1.30;;
21266;SDS011;10791;53.108;18.326;2023-10-31T14:07:47;2.67;;;1.30;;
21266;SDS011;10791;53.108;18.326;2023-10-31T14:12:51;1.83;;;1.13;;
21266;SDS011;10791;53.108;18.326;2023-10-31T14:17:55;2.20;;;1.20;;
21266;SDS011;10791;53.108;18.326;2023-10-31T14:23:00;2.00;;;1.30;;
21266;SDS011;10791;53.108;18.326;2023-10-31T14:28:03;0.80;;;0.70;;
21266;SDS011;10791;53.108;18.326;2023-10-31T14:33:06;1.73;;;0.83;;
21266;SDS011;10791;53.108;18.326;2023-10-31T14:38:10;1.97;;;1.00;;
21266;SDS011;10791;53.108;18.326;2023-10-31T14:43:14;1.30;;;0.90;;
21266;SDS011;10791;53.108;18.326;2023-10-31T14:48:21;2.57;;;1.17;;
21266;SDS011;10791;53.108;18.326;2023-10-31T14:53:24;1.87;;;1.33;;
21266;SDS011;10791;53.108;18.326;2023-10-31T14:58:27;3.90;;;1.30;;
21266;SDS011;10791;53.108;18.326;2023-10-31T15:03:31;1.80;;;1.27;;
21266;SDS011;10791;53.108;18.326;2023-10-31T15:08:34;2.77;;;1.20;;
21266;SDS011;10791;53.108;18.326;2023-10-31T15:13:38;2.23;;;1.20;;
21266;SDS011;10791;53.108;18.326;2023-10-31T15:18:48;3.60;;;1.50;;
21266;SDS011;10791;53.108;18.326;2023-10-31T15:23:51;4.37;;;1.70;;
21266;SDS011;10791;53.108;18.326;2023-10-31T15:28:56;2.93;;;1.50;;
21266;SDS011;10791;53.108;18.326;2023-10-31T15:33:59;2.90;;;1.53;;
21266;SDS011;10791;53.108;18.326;2023-10-31T15:39:02;2.67;;;1.60;;
21266;SDS011;10791;53.108;18.326;2023-10-31T15:44:06;2.47;;;1.70;;
21266;SDS011;10791;53.108;18.326;2023-10-31T15:49:09;3.30;;;2.10;;
21266;SDS011;10791;53.108;18.326;2023-10-31T15:54:12;2.70;;;1.97;;
21266;SDS011;10791;53.108;18.326;2023-10-31T15:59:15;2.50;;;1.53;;
21266;SDS011;10791;53.108;18.326;2023-10-31T16:04:19;1.80;;;1.10;;
21266;SDS011;10791;53.108;18.326;2023-10-31T16:09:23;4.70;;;1.60;;
21266;SDS011;10791;53.108;18.326;2023-10-31T16:14:26;4.33;;;2.00;;
21266;SDS011;10791;53.108;18.326;2023-10-31T16:19:29;5.47;;;1.73;;
21266;SDS011;10791;53.108;18.326;2023-10-31T16:24:32;4.43;;;1.60;;
21266;SDS011;10791;53.108;18.326;2023-10-31T16:29:36;3.70;;;1.93;;
21266;SDS011;10791;53.108;18.326;2023-10-31T16:34:39;4.03;;;2.37;;
21266;SDS011;10791;53.108;18.326;2023-10-31T16:39:46;5.40;;;3.47;;
21266;SDS011;10791;53.108;18.326;2023-10-31T16:44:49;11.10;;;6.20;;
21266;SDS011;10791;53.108;18.326;2023-10-31T16:49:52;4.03;;;2.33;;
21266;SDS011;10791;53.108;18.326;2023-10-31T16:54:56;4.47;;;2.07;;
21266;SDS011;10791;53.108;18.326;2023-10-31T16:59:59;3.67;;;1.93;;
21266;SDS011;10791;53.108;18.326;2023-10-31T17:05:03;2.10;;;1.20;;
21266;SDS011;10791;53.108;18.326;2023-10-31T17:10:07;2.83;;;1.93;;
21266;SDS011;10791;53.108;18.326;2023-10-31T17:15:10;3.30;;;1.93;;
21266;SDS011;10791;53.108;18.326;2023-10-31T17:20:14;2.23;;;1.30;;
21266;SDS011;10791;53.108;18.326;2023-10-31T17:25:18;3.17;;;1.57;;
21266;SDS011;10791;53.108;18.326;2023-10-31T17:30:21;2.40;;;1.23;;
21266;SDS011;10791;53.108;18.326;2023-10-31T17:35:24;2.47;;;1.30;;
21266;SDS011;10791;53.108;18.326;2023-10-31T17:40:28;3.13;;;1.40;;
21266;SDS011;10791;53.108;18.326;2023-10-31T17:45:32;2.73;;;1.53;;
21266;SDS011;10791;53.108;18.326;2023-10-31T17:50:36;4.07;;;1.40;;
21266;SDS011;10791;53.108;18.326;2023-10-31T17:55:42;2.30;;;1.33;;
21266;SDS011;10791;53.108;18.326;2023-10-31T18:00:46;2.53;;;1.40;;
21266;SDS011;10791;53.108;18.326;2023-10-31T18:05:49;2.13;;;1.10;;
21266;SDS011;10791;53.108;18.326;2023-10-31T18:10:53;1.73;;;1.00;;
21266;SDS011;10791;53.108;18.326;2023-10-31T18:15:57;2.93;;;1.50;;
21266;SDS011;10791;53.108;18.326;2023-10-31T18:21:00;2.60;;;1.57;;
21266;SDS011;10791;53.108;18.326;2023-10-31T18:26:04;3.40;;;1.50;;
21266;SDS011;10791;53.108;18.326;2023-10-31T18:31:08;2.43;;;1.20;;
21266;SDS011;10791;53.108;18.326;2023-10-31T18:36:12;2.53;;;1.20;;
21266;SDS011;10791;53.108;18.326;2023-10-31T18:41:28;3.33;;;1.53;;
21266;SDS011;10791;53.108;18.326;2023-10-31T18:46:32;2.47;;;1.23;;
21266;SDS011;10791;53.108;18.326;2023-10-31T18:51:35;3.13;;;1.40;;
21266;SDS011;10791;53.108;18.326;2023-10-31T18:56:38;3.33;;;1.00;;
21266;SDS011;10791;53.108;18.326;2023-10-31T19:01:42;3.47;;;1.20;;
21266;SDS011;10791;53.108;18.326;2023-10-31T19:06:46;4.20;;;2.00;;
21266;SDS011;10791;53.108;18.326;2023-10-31T19:11:50;2.00;;;1.27;;
21266;SDS011;10791;53.108;18.326;2023-10-31T19:16:54;1.93;;;0.90;;
21266;SDS011;10791;53.108;18.326;2023-10-31T19:21:58;2.27;;;1.20;;
21266;SDS011;10791;53.108;18.326;2023-10-31T19:27:02;2.20;;;0.90;;
21266;SDS011;10791;53.108;18.326;2023-10-31T19:32:07;1.23;;;0.50;;
21266;SDS011;10791;53.108;18.326;2023-10-31T19:37:10;3.47;;;1.00;;
21266;SDS011;10791;53.108;18.326;2023-10-31T19:42:15;2.53;;;0.80;;
21266;SDS011;10791;53.108;18.326;2023-10-31T19:47:19;1.90;;;0.90;;
21266;SDS011;10791;53.108;18.326;2023-10-31T19:52:23;1.20;;;0.73;;
21266;SDS011;10791;53.108;18.326;2023-10-31T19:57:27;3.03;;;0.60;;
21266;SDS011;10791;53.108;18.326;2023-10-31T20:02:32;0.90;;;0.40;;
21266;SDS011;10791;53.108;18.326;2023-10-31T20:07:36;1.27;;;0.43;;
21266;SDS011;10791;53.108;18.326;2023-10-31T20:12:53;1.30;;;0.43;;
21266;SDS011;10791;53.108;18.326;2023-10-31T20:17:59;0.63;;;0.40;;
21266;SDS011;10791;53.108;18.326;2023-10-31T20:23:03;0.40;;;0.30;;
21266;SDS011;10791;53.108;18.326;2023-10-31T20:28:07;0.77;;;0.50;;
21266;SDS011;10791;53.108;18.326;2023-10-31T20:33:11;1.47;;;0.70;;
21266;SDS011;10791;53.108;18.326;2023-10-31T20:38:16;0.83;;;0.40;;
21266;SDS011;10791;53.108;18.326;2023-10-31T20:43:21;1.93;;;0.83;;
21266;SDS011;10791;53.108;18.326;2023-10-31T20:48:25;7.63;;;0.90;;
21266;SDS011;10791;53.108;18.326;2023-10-31T20:53:29;3.77;;;0.60;;
21266;SDS011;10791;53.108;18.326;2023-10-31T20:58:33;0.90;;;0.50;;
21266;SDS011;10791;53.108;18.326;2023-10-31T21:03:38;1.43;;;0.50;;
21266;SDS011;10791;53.108;18.326;2023-10-31T21:08:41;1.80;;;0.43;;
21266;SDS011;10791;53.108;18.326;2023-10-31T21:13:46;4.83;;;0.57;;
21266;SDS011;10791;53.108;18.326;2023-10-31T21:18:50;0.20;;;0.20;;
21266;SDS011;10791;53.108;18.326;2023-10-31T21:23:55;1.63;;;0.50;;
21266;SDS011;10791;53.108;18.326;2023-10-31T21:28:59;1.27;;;0.60;;
21266;SDS011;10791;53.108;18.326;2023-10-31T21:34:04;1.00;;;0.47;;
21266;SDS011;10791;53.108;18.326;2023-10-31T21:39:07;1.23;;;0.50;;
21266;SDS011;10791;53.108;18.326;2023-10-31T21:44:12;1.37;;;0.60;;
21266;SDS011;10791;53.108;18.326;2023-10-31T21:49:15;0.97;;;0.60;;
21266;SDS011;10791;53.108;18.326;2023-10-31T21:54:19;1.03;;;0.63;;
21266;SDS011;10791;53.108;18.326;2023-10-31T21:59:23;1.53;;;0.73;;
21266;SDS011;10791;53.108;18.326;2023-10-31T22:04:26;1.80;;;0.50;;
21266;SDS011;10791;53.108;18.326;2023-10-31T22:09:30;1.30;;;0.60;;
21266;SDS011;10791;53.108;18.326;2023-10-31T22:14:33;1.27;;;0.70;;
21266;SDS011;10791;53.108;18.326;2023-10-31T22:19:36;1.63;;;0.47;;
21266;SDS011;10791;53.108;18.326;2023-10-31T22:24:39;0.60;;;0.33;;
21266;SDS011;10791;53.108;18.326;2023-10-31T22:29:43;1.00;;;0.40;;
21266;SDS011;10791;53.108;18.326;2023-10-31T22:34:46;0.57;;;0.37;;
21266;SDS011;10791;53.108;18.326;2023-10-31T22:39:51;1.40;;;0.50;;
21266;SDS011;10791;53.108;18.326;2023-10-31T22:44:54;1.50;;;0.80;;
21266;SDS011;10791;53.108;18.326;2023-10-31T22:49:58;2.10;;;0.77;;
21266;SDS011;10791;53.108;18.326;2023-10-31T22:55:02;0.97;;;0.40;;
21266;SDS011;10791;53.108;18.326;2023-10-31T23:00:06;1.03;;;0.63;;
21266;SDS011;10791;53.108;18.326;2023-10-31T23:05:15;0.43;;;0.40;;
21266;SDS011;10791;53.108;18.326;2023-10-31T23:10:19;0.77;;;0.40;;
21266;SDS011;10791;53.108;18.326;2023-10-31T23:15:22;0.37;;;0.20;;
21266;SDS011;10791;53.108;18.326;2023-10-31T23:20:26;0.60;;;0.43;;
21266;SDS011;10791;53.108;18.326;2023-10-31T23:25:29;1.07;;;0.50;;
21266;SDS011;10791;53.108;18.326;2023-10-31T23:30:32;1.03;;;0.43;;
21266;SDS011;10791;53.108;18.326;2023-10-31T23:35:36;1.03;;;0.50;;
21266;SDS011;10791;53.108;18.326;2023-10-31T23:40:39;0.87;;;0.50;;
21266;SDS011;10791;53.108;18.326;2023-10-31T23:45:48;0.77;;;0.40;;
21266;SDS011;10791;53.108;18.326;2023-10-31T23:50:51;0.90;;;0.40;;
21266;SDS011;10791;53.108;18.326;2023-10-31T23:55:54;6.80;;;0.50;;
